Estações Meteorológicas Convencionais MB

São Tomé
Data Hora VISIB (KM) Cobertura(OITAVOS) DD Vento(º) Intensidade (NÓS) TEMP DO AR (º) Temp do Ponto de Orvalho(ºC) Pressão (hPa) TEMP MAX (ºC) TEMP MIN (ºC)
30/05/2020 06:00 4/10 30 2 1019.50
30/05/2020 00:00 4/10 90 6 1019.50
29/05/2020 18:00 20/50 1 140 2 1019.50
29/05/2020 12:00 10/20 6 260 4 1021.50
28/05/2020 06:00 20/50 8 270 5 1017.90
28/05/2020 00:00 10/20 240 13 1016.90
27/05/2020 18:00 50 0 230 12 1013.80
27/05/2020 12:00 50 0 280 6 1014.90
27/05/2020 06:00 50 0 270 5 1013.40
27/05/2020 00:00 10/20 210 8 1012.50
26/05/2020 18:00 50 0 210 8 1010.30
26/05/2020 12:00 50 0 210 4 1011.90
24/05/2020 06:00 10/20 330 4 1013.00
25/05/2020 00:00 4/10 10 10 1016.50
23/05/2020 18:00 20/50 7 300 12 17.00 1009.00
23/05/2020 12:00 4/10 0 10 6 1015.00
22/05/2020 18:00 20/50 0 50 18 1015.10
22/05/2020 12:00 20/50 0 20 8 1020.10
20/05/2020 06:00 10/20 4 90 2 1022.60
20/05/2020 00:00 4/10 100 6 1023.70
19/05/2020 18:00 50 4 130 4 1021.80
19/05/2020 12:00 50 5 150 2 1023.80
18/05/2020 06:00 10/20 10 2 1019.00
18/05/2020 00:00 4/10 80 2 1019.00
17/05/2020 18:00 20/50 6 110 6 1017.00
17/05/2020 12:00 10/20 6 300 2 1018.60
16/05/2020 06:00 10/20 8 270 4 1017.00
16/05/2020 00:00 4/10 160 4 1019.00
15/05/2020 18:00 20/50 8 150 10 1017.10
15/05/2020 12:00 20/50 8 160 10 1018.60
15/05/2020 06:00 20/50 170 3 1016.50
15/05/2020 00:00 10/20 180 3 1016.20
14/05/2020 18:00 20/50 7 180 4 1012.10
14/05/2020 12:00 50 4 20 7 1013.10
14/05/2020 06:00 10/20 5 360 2 1012.70
11/05/2020 06:00 10/20 20 2 1020.10
11/05/2020 00:00 10/20 60 6 1021.50
10/05/2020 18:00 50 0 80 6 1020.60
10/05/2020 12:00 50 0 20 2 1023.70
10/05/2020 06:00 20/50 4 30 2 1022.00
10/05/2020 00:00 10/20 60 2 1023.90
09/05/2020 18:00 50 2 120 5 1021.50
09/05/2020 12:00 50 3 260 5 1023.90
06/05/2020 06:00 10/20 1012.20
06/05/2020 06:00 10/20 1012.20
06/05/2020 00:00 4/10 30 8 1013.40
05/05/2020 18:00 20/50 4 40 6 1011.70
05/05/2020 12:00 50 0 360 7 1015.80
03/05/2020 06:00 20/50 8 250 6 1015.10
03/05/2020 00:00 4/10 190 12 1013.50
02/05/2020 18:00 50 1 50 10 1010.70
02/05/2020 12:00 50 1 350 6 1015.50
01/05/2020 06:00 10/20 1015.40
01/05/2020 00:00 4/10 30 6 1016.10
30/04/2020 18:00 50 5 40 10 1013.90
30/04/2020 12:00 20/50 0 230 18 19.00 1017.50
30/04/2020 12:00 20/50 8 350 6 1017.80
30/04/2020 06:00 10/20 7 360 2 1016.50
30/04/2020 00:00 10/20 60 4 1018.70
29/04/2020 18:00 50 5 10 3 1017.90
29/04/2020 12:00 20/50 8 330 5 1021.20
27/04/2020 06:00 10/20 2 1020.50
27/04/2020 00:00 4/10 80 6 1019.80
26/04/2020 18:00 20/50 0 80 8 1018.10
26/04/2020 12:00 20/50 0 20 2 1021.10
26/04/2020 06:00 10/20 0 20 2 1019.70
26/04/2020 00:00 4/10 70 5 1020.30
25/04/2020 18:00 50 3 100 2 1019.40
25/04/2020 12:00 20/50 8 300 6 1020.70
23/04/2020 12:00 20/50 3 270 4 1015.10
23/04/2020 00:00 2/4 100 8 1015.50
22/04/2020 18:00 50 5 180 8 1014.90
22/04/2020 12:00 50 2 220 6 1017.00
21/04/2020 06:00 20/50 1 260 6 1016.60
21/04/2020 00:00 10/20 200 10 1017.60
20/04/2020 18:00 20/50 2 210 11 1016.30
20/04/2020 12:00 20/50 6 260 10 1019.10
19/04/2020 00:00 4/10 190 4 1020.90
18/04/2020 18:00 50 6 200 6 1019.00
18/04/2020 12:00 50 4 230 12 1021.20
18/04/2020 06:00 20/50 6 240 8 1019.10
18/04/2020 00:00 2/4 210 16 1020.20
17/04/2020 18:00 20/50 7 190 10 1018.30
17/04/2020 12:00 20/50 7 240 12 1019.90
17/04/2020 06:00 10/20 4 210 10
15/04/2020 00:00 10/20 30 7 1011.00
14/04/2020 18:00 50 2 30 5 1010.90
14/04/2020 12:00 50 3 60 8 1014.90
14/04/2020 06:00 20/50 3 60 4 1014.40
14/04/2020 00:00 4/10 100 8 1017.00
13/04/2020 18:00 50 2 120 6 1015.90
13/04/2020 12:00 50 3 230 6 1018.40
11/04/2020 06:00 10/20 8 230 6 1013.80
11/04/2020 00:00 10/20 170 0 1015.30
10/04/2020 18:00 20/50 8 170 4 1013.40
10/04/2020 12:00 20/50 98 220 6 1015.00
08/04/2020 06:00 10/20 8 190 6 1011.30
08/04/2020 00:00 2/4 2 130 10 1013.10
07/04/2020 18:00 50 3 130 6 1009.80
07/04/2020 12:00 20/50 0 350 10 1012.20